sensor_id;sensor_type;location;lat;lon;timestamp;P1;durP1;ratioP1;P2;durP2;ratioP2
48550;SDS011;34397;51.176;6.738;2022-07-29T00:01:34;9.23;;;2.00;;
48550;SDS011;34397;51.176;6.738;2022-07-29T00:04:06;5.00;;;2.00;;
48550;SDS011;34397;51.176;6.738;2022-07-29T00:06:38;6.00;;;2.00;;
48550;SDS011;34397;51.176;6.738;2022-07-29T00:09:10;4.55;;;1.80;;
48550;SDS011;34397;51.176;6.738;2022-07-29T00:11:43;4.68;;;1.70;;
48550;SDS011;34397;51.176;6.738;2022-07-29T00:14:15;6.30;;;1.80;;
48550;SDS011;34397;51.176;6.738;2022-07-29T00:16:47;5.25;;;2.03;;
48550;SDS011;34397;51.176;6.738;2022-07-29T00:19:18;4.47;;;1.83;;
48550;SDS011;34397;51.176;6.738;2022-07-29T00:21:50;4.78;;;2.22;;
48550;SDS011;34397;51.176;6.738;2022-07-29T00:24:22;5.50;;;1.80;;
48550;SDS011;34397;51.176;6.738;2022-07-29T00:26:55;6.18;;;1.85;;
48550;SDS011;34397;51.176;6.738;2022-07-29T00:29:27;6.75;;;2.25;;
48550;SDS011;34397;51.176;6.738;2022-07-29T00:31:59;5.45;;;1.90;;
48550;SDS011;34397;51.176;6.738;2022-07-29T00:34:31;4.70;;;1.92;;
48550;SDS011;34397;51.176;6.738;2022-07-29T00:37:20;4.78;;;2.10;;
48550;SDS011;34397;51.176;6.738;2022-07-29T00:39:52;5.32;;;2.28;;
48550;SDS011;34397;51.176;6.738;2022-07-29T00:42:25;5.35;;;2.30;;
48550;SDS011;34397;51.176;6.738;2022-07-29T00:44:57;4.55;;;2.20;;
48550;SDS011;34397;51.176;6.738;2022-07-29T00:47:29;4.93;;;1.92;;
48550;SDS011;34397;51.176;6.738;2022-07-29T00:50:01;4.20;;;1.85;;
48550;SDS011;34397;51.176;6.738;2022-07-29T00:52:36;7.72;;;2.05;;
48550;SDS011;34397;51.176;6.738;2022-07-29T00:55:11;4.40;;;1.80;;
48550;SDS011;34397;51.176;6.738;2022-07-29T00:57:46;6.22;;;1.83;;
48550;SDS011;34397;51.176;6.738;2022-07-29T01:00:18;5.43;;;1.63;;
48550;SDS011;34397;51.176;6.738;2022-07-29T01:02:53;4.70;;;1.83;;
48550;SDS011;34397;51.176;6.738;2022-07-29T01:05:25;5.47;;;1.90;;
48550;SDS011;34397;51.176;6.738;2022-07-29T01:07:58;5.45;;;1.70;;
48550;SDS011;34397;51.176;6.738;2022-07-29T01:10:31;5.00;;;1.75;;
48550;SDS011;34397;51.176;6.738;2022-07-29T01:13:06;4.75;;;1.88;;
48550;SDS011;34397;51.176;6.738;2022-07-29T01:15:40;4.63;;;1.63;;
48550;SDS011;34397;51.176;6.738;2022-07-29T01:18:18;3.63;;;1.48;;
48550;SDS011;34397;51.176;6.738;2022-07-29T01:21:07;6.97;;;2.08;;
48550;SDS011;34397;51.176;6.738;2022-07-29T01:24:07;3.65;;;1.58;;
48550;SDS011;34397;51.176;6.738;2022-07-29T01:26:51;9.93;;;1.77;;
48550;SDS011;34397;51.176;6.738;2022-07-29T01:29:30;6.15;;;2.20;;
48550;SDS011;34397;51.176;6.738;2022-07-29T01:32:08;6.82;;;1.90;;
48550;SDS011;34397;51.176;6.738;2022-07-29T01:34:45;4.80;;;1.70;;
48550;SDS011;34397;51.176;6.738;2022-07-29T01:37:22;3.55;;;1.63;;
48550;SDS011;34397;51.176;6.738;2022-07-29T01:39:58;7.45;;;1.92;;
48550;SDS011;34397;51.176;6.738;2022-07-29T01:42:34;6.55;;;2.00;;
48550;SDS011;34397;51.176;6.738;2022-07-29T01:45:12;5.32;;;1.80;;
48550;SDS011;34397;51.176;6.738;2022-07-29T01:47:49;5.22;;;1.88;;
48550;SDS011;34397;51.176;6.738;2022-07-29T01:50:31;6.68;;;1.90;;
48550;SDS011;34397;51.176;6.738;2022-07-29T01:53:07;4.82;;;2.30;;
48550;SDS011;34397;51.176;6.738;2022-07-29T01:55:42;4.97;;;2.35;;
48550;SDS011;34397;51.176;6.738;2022-07-29T01:58:17;6.45;;;2.50;;
48550;SDS011;34397;51.176;6.738;2022-07-29T02:00:51;6.53;;;2.50;;
48550;SDS011;34397;51.176;6.738;2022-07-29T02:03:24;6.50;;;2.10;;
48550;SDS011;34397;51.176;6.738;2022-07-29T02:05:58;5.40;;;2.10;;
48550;SDS011;34397;51.176;6.738;2022-07-29T02:08:33;7.80;;;2.20;;
48550;SDS011;34397;51.176;6.738;2022-07-29T02:11:06;4.88;;;1.80;;
48550;SDS011;34397;51.176;6.738;2022-07-29T02:13:39;4.53;;;2.08;;
48550;SDS011;34397;51.176;6.738;2022-07-29T02:16:14;7.18;;;2.10;;
48550;SDS011;34397;51.176;6.738;2022-07-29T02:18:50;4.97;;;1.90;;
48550;SDS011;34397;51.176;6.738;2022-07-29T02:21:25;6.10;;;1.85;;
48550;SDS011;34397;51.176;6.738;2022-07-29T02:23:59;4.65;;;1.70;;
48550;SDS011;34397;51.176;6.738;2022-07-29T02:26:32;5.38;;;2.00;;
48550;SDS011;34397;51.176;6.738;2022-07-29T02:29:05;6.72;;;2.30;;
48550;SDS011;34397;51.176;6.738;2022-07-29T02:31:41;6.82;;;2.00;;
48550;SDS011;34397;51.176;6.738;2022-07-29T02:34:14;9.80;;;2.22;;
48550;SDS011;34397;51.176;6.738;2022-07-29T02:36:48;4.65;;;2.10;;
48550;SDS011;34397;51.176;6.738;2022-07-29T02:41:55;5.00;;;2.47;;
48550;SDS011;34397;51.176;6.738;2022-07-29T02:44:31;6.25;;;2.40;;
48550;SDS011;34397;51.176;6.738;2022-07-29T02:47:07;4.97;;;2.70;;
48550;SDS011;34397;51.176;6.738;2022-07-29T02:49:48;5.50;;;2.47;;
48550;SDS011;34397;51.176;6.738;2022-07-29T02:52:26;7.03;;;2.50;;
48550;SDS011;34397;51.176;6.738;2022-07-29T02:55:05;5.30;;;2.60;;
48550;SDS011;34397;51.176;6.738;2022-07-29T02:57:46;8.15;;;2.90;;
48550;SDS011;34397;51.176;6.738;2022-07-29T03:00:25;10.05;;;2.80;;
48550;SDS011;34397;51.176;6.738;2022-07-29T03:03:01;9.05;;;2.80;;
48550;SDS011;34397;51.176;6.738;2022-07-29T03:05:39;9.80;;;2.50;;
48550;SDS011;34397;51.176;6.738;2022-07-29T03:08:12;6.57;;;2.60;;
48550;SDS011;34397;51.176;6.738;2022-07-29T03:10:46;8.35;;;2.10;;
48550;SDS011;34397;51.176;6.738;2022-07-29T03:13:18;7.22;;;2.25;;
48550;SDS011;34397;51.176;6.738;2022-07-29T03:15:51;6.97;;;2.40;;
48550;SDS011;34397;51.176;6.738;2022-07-29T03:18:26;5.20;;;2.20;;
48550;SDS011;34397;51.176;6.738;2022-07-29T03:20:58;7.18;;;2.17;;
48550;SDS011;34397;51.176;6.738;2022-07-29T03:23:30;5.27;;;2.07;;
48550;SDS011;34397;51.176;6.738;2022-07-29T03:26:02;5.95;;;1.90;;
48550;SDS011;34397;51.176;6.738;2022-07-29T03:28:34;5.13;;;2.05;;
48550;SDS011;34397;51.176;6.738;2022-07-29T03:31:06;11.63;;;2.50;;
48550;SDS011;34397;51.176;6.738;2022-07-29T03:33:39;8.65;;;2.30;;
48550;SDS011;34397;51.176;6.738;2022-07-29T03:36:11;6.47;;;2.03;;
48550;SDS011;34397;51.176;6.738;2022-07-29T03:38:43;5.93;;;2.38;;
48550;SDS011;34397;51.176;6.738;2022-07-29T03:41:17;6.13;;;2.00;;
48550;SDS011;34397;51.176;6.738;2022-07-29T03:43:51;5.47;;;2.15;;
48550;SDS011;34397;51.176;6.738;2022-07-29T03:46:24;6.40;;;2.47;;
48550;SDS011;34397;51.176;6.738;2022-07-29T03:49:01;4.80;;;2.20;;
48550;SDS011;34397;51.176;6.738;2022-07-29T03:51:35;8.57;;;2.22;;
48550;SDS011;34397;51.176;6.738;2022-07-29T03:54:07;6.78;;;1.98;;
48550;SDS011;34397;51.176;6.738;2022-07-29T03:56:40;5.17;;;2.30;;
48550;SDS011;34397;51.176;6.738;2022-07-29T03:59:17;4.82;;;2.55;;
48550;SDS011;34397;51.176;6.738;2022-07-29T04:01:49;5.72;;;1.80;;
48550;SDS011;34397;51.176;6.738;2022-07-29T04:04:23;5.53;;;2.10;;
48550;SDS011;34397;51.176;6.738;2022-07-29T04:06:56;7.13;;;2.05;;
48550;SDS011;34397;51.176;6.738;2022-07-29T04:09:28;5.07;;;2.30;;
48550;SDS011;34397;51.176;6.738;2022-07-29T04:12:00;6.15;;;2.20;;
48550;SDS011;34397;51.176;6.738;2022-07-29T04:14:32;5.80;;;2.10;;
48550;SDS011;34397;51.176;6.738;2022-07-29T04:17:05;6.15;;;2.53;;
48550;SDS011;34397;51.176;6.738;2022-07-29T04:19:39;5.80;;;2.43;;
48550;SDS011;34397;51.176;6.738;2022-07-29T04:22:10;5.13;;;2.00;;
48550;SDS011;34397;51.176;6.738;2022-07-29T04:24:42;6.15;;;2.15;;
48550;SDS011;34397;51.176;6.738;2022-07-29T04:27:14;5.03;;;2.10;;
48550;SDS011;34397;51.176;6.738;2022-07-29T04:29:46;4.03;;;1.95;;
48550;SDS011;34397;51.176;6.738;2022-07-29T04:32:18;5.00;;;2.40;;
48550;SDS011;34397;51.176;6.738;2022-07-29T04:34:52;6.35;;;2.35;;
48550;SDS011;34397;51.176;6.738;2022-07-29T04:37:24;4.82;;;2.45;;
48550;SDS011;34397;51.176;6.738;2022-07-29T04:39:56;5.63;;;2.78;;
48550;SDS011;34397;51.176;6.738;2022-07-29T04:42:27;7.30;;;2.88;;
48550;SDS011;34397;51.176;6.738;2022-07-29T04:44:59;7.50;;;3.90;;
48550;SDS011;34397;51.176;6.738;2022-07-29T04:47:31;8.75;;;4.18;;
48550;SDS011;34397;51.176;6.738;2022-07-29T04:50:05;8.48;;;4.15;;
48550;SDS011;34397;51.176;6.738;2022-07-29T04:52:39;6.07;;;3.65;;
48550;SDS011;34397;51.176;6.738;2022-07-29T04:55:10;8.85;;;3.60;;
48550;SDS011;34397;51.176;6.738;2022-07-29T04:57:42;10.27;;;3.90;;
48550;SDS011;34397;51.176;6.738;2022-07-29T05:00:14;7.05;;;3.75;;
48550;SDS011;34397;51.176;6.738;2022-07-29T05:02:47;8.32;;;3.60;;
48550;SDS011;34397;51.176;6.738;2022-07-29T05:05:20;6.07;;;3.20;;
48550;SDS011;34397;51.176;6.738;2022-07-29T05:07:52;5.70;;;2.92;;
48550;SDS011;34397;51.176;6.738;2022-07-29T05:10:24;4.90;;;2.63;;
48550;SDS011;34397;51.176;6.738;2022-07-29T05:12:56;6.47;;;2.88;;
48550;SDS011;34397;51.176;6.738;2022-07-29T05:15:28;6.70;;;3.05;;
48550;SDS011;34397;51.176;6.738;2022-07-29T05:18:00;7.22;;;2.88;;
48550;SDS011;34397;51.176;6.738;2022-07-29T05:20:33;6.67;;;2.80;;
48550;SDS011;34397;51.176;6.738;2022-07-29T05:23:05;8.43;;;2.35;;
48550;SDS011;34397;51.176;6.738;2022-07-29T05:25:37;5.00;;;2.35;;
48550;SDS011;34397;51.176;6.738;2022-07-29T05:28:09;7.23;;;2.87;;
48550;SDS011;34397;51.176;6.738;2022-07-29T05:30:41;5.15;;;2.60;;
48550;SDS011;34397;51.176;6.738;2022-07-29T05:33:14;6.55;;;2.78;;
48550;SDS011;34397;51.176;6.738;2022-07-29T05:35:47;6.18;;;2.38;;
48550;SDS011;34397;51.176;6.738;2022-07-29T05:38:19;5.78;;;2.70;;
48550;SDS011;34397;51.176;6.738;2022-07-29T05:40:51;5.57;;;2.70;;
48550;SDS011;34397;51.176;6.738;2022-07-29T05:43:23;5.50;;;2.60;;
48550;SDS011;34397;51.176;6.738;2022-07-29T05:45:55;6.70;;;3.10;;
48550;SDS011;34397;51.176;6.738;2022-07-29T05:48:27;6.03;;;2.67;;
48550;SDS011;34397;51.176;6.738;2022-07-29T05:51:01;6.80;;;2.80;;
48550;SDS011;34397;51.176;6.738;2022-07-29T05:53:33;6.72;;;2.85;;
48550;SDS011;34397;51.176;6.738;2022-07-29T05:56:05;6.07;;;2.53;;
48550;SDS011;34397;51.176;6.738;2022-07-29T06:01:09;5.43;;;2.63;;
48550;SDS011;34397;51.176;6.738;2022-07-29T06:03:41;6.18;;;2.13;;
48550;SDS011;34397;51.176;6.738;2022-07-29T06:06:14;5.25;;;2.47;;
48550;SDS011;34397;51.176;6.738;2022-07-29T06:08:46;5.50;;;2.90;;
48550;SDS011;34397;51.176;6.738;2022-07-29T06:11:18;6.82;;;2.50;;
48550;SDS011;34397;51.176;6.738;2022-07-29T06:13:50;9.10;;;3.30;;
48550;SDS011;34397;51.176;6.738;2022-07-29T06:16:23;6.45;;;2.70;;
48550;SDS011;34397;51.176;6.738;2022-07-29T06:18:55;4.25;;;2.53;;
48550;SDS011;34397;51.176;6.738;2022-07-29T06:21:28;6.53;;;2.55;;
48550;SDS011;34397;51.176;6.738;2022-07-29T06:24:00;7.40;;;3.05;;
48550;SDS011;34397;51.176;6.738;2022-07-29T06:26:31;5.75;;;3.30;;
48550;SDS011;34397;51.176;6.738;2022-07-29T06:29:04;6.03;;;2.90;;
48550;SDS011;34397;51.176;6.738;2022-07-29T06:31:36;6.00;;;2.97;;
48550;SDS011;34397;51.176;6.738;2022-07-29T06:34:08;7.03;;;3.60;;
48550;SDS011;34397;51.176;6.738;2022-07-29T06:36:41;6.38;;;3.13;;
48550;SDS011;34397;51.176;6.738;2022-07-29T06:39:13;6.40;;;3.45;;
48550;SDS011;34397;51.176;6.738;2022-07-29T06:41:46;5.18;;;2.83;;
48550;SDS011;34397;51.176;6.738;2022-07-29T06:44:19;5.68;;;2.90;;
48550;SDS011;34397;51.176;6.738;2022-07-29T06:46:52;6.65;;;3.63;;
48550;SDS011;34397;51.176;6.738;2022-07-29T06:49:24;4.90;;;2.83;;
48550;SDS011;34397;51.176;6.738;2022-07-29T06:51:58;8.57;;;2.85;;
48550;SDS011;34397;51.176;6.738;2022-07-29T06:54:30;6.43;;;3.13;;
48550;SDS011;34397;51.176;6.738;2022-07-29T06:57:02;5.80;;;3.35;;
48550;SDS011;34397;51.176;6.738;2022-07-29T06:59:34;5.75;;;3.15;;
48550;SDS011;34397;51.176;6.738;2022-07-29T07:02:06;6.43;;;3.08;;
48550;SDS011;34397;51.176;6.738;2022-07-29T07:04:38;12.52;;;3.40;;
48550;SDS011;34397;51.176;6.738;2022-07-29T07:07:11;6.72;;;3.08;;
48550;SDS011;34397;51.176;6.738;2022-07-29T07:09:43;7.15;;;3.67;;
48550;SDS011;34397;51.176;6.738;2022-07-29T07:12:15;7.43;;;2.83;;
48550;SDS011;34397;51.176;6.738;2022-07-29T07:14:47;6.55;;;3.50;;
48550;SDS011;34397;51.176;6.738;2022-07-29T07:17:19;7.65;;;3.30;;
48550;SDS011;34397;51.176;6.738;2022-07-29T07:19:51;5.60;;;3.28;;
48550;SDS011;34397;51.176;6.738;2022-07-29T07:22:24;8.07;;;3.35;;
48550;SDS011;34397;51.176;6.738;2022-07-29T07:24:56;7.43;;;3.42;;
48550;SDS011;34397;51.176;6.738;2022-07-29T07:27:27;6.88;;;3.47;;
48550;SDS011;34397;51.176;6.738;2022-07-29T07:29:59;6.65;;;3.35;;
48550;SDS011;34397;51.176;6.738;2022-07-29T07:32:31;7.53;;;3.53;;
48550;SDS011;34397;51.176;6.738;2022-07-29T07:35:04;6.82;;;3.70;;
48550;SDS011;34397;51.176;6.738;2022-07-29T07:37:40;6.47;;;3.13;;
48550;SDS011;34397;51.176;6.738;2022-07-29T07:40:12;6.47;;;3.55;;
48550;SDS011;34397;51.176;6.738;2022-07-29T07:42:44;6.53;;;3.60;;
48550;SDS011;34397;51.176;6.738;2022-07-29T07:45:16;7.03;;;3.97;;
48550;SDS011;34397;51.176;6.738;2022-07-29T07:47:48;8.63;;;3.60;;
48550;SDS011;34397;51.176;6.738;2022-07-29T07:50:20;5.70;;;3.33;;
48550;SDS011;34397;51.176;6.738;2022-07-29T07:52:54;7.55;;;3.63;;
48550;SDS011;34397;51.176;6.738;2022-07-29T07:55:28;7.00;;;3.60;;
48550;SDS011;34397;51.176;6.738;2022-07-29T07:58:00;6.32;;;3.70;;
48550;SDS011;34397;51.176;6.738;2022-07-29T08:00:32;10.20;;;4.00;;
48550;SDS011;34397;51.176;6.738;2022-07-29T08:03:04;8.10;;;4.20;;
48550;SDS011;34397;51.176;6.738;2022-07-29T08:05:36;10.13;;;4.53;;
48550;SDS011;34397;51.176;6.738;2022-07-29T08:08:09;8.90;;;4.10;;
48550;SDS011;34397;51.176;6.738;2022-07-29T08:10:41;7.97;;;4.15;;
48550;SDS011;34397;51.176;6.738;2022-07-29T08:13:26;12.93;;;4.93;;
48550;SDS011;34397;51.176;6.738;2022-07-29T08:16:00;7.72;;;4.10;;
48550;SDS011;34397;51.176;6.738;2022-07-29T08:18:32;9.13;;;4.30;;
48550;SDS011;34397;51.176;6.738;2022-07-29T08:21:05;9.32;;;4.68;;
48550;SDS011;34397;51.176;6.738;2022-07-29T08:23:39;15.05;;;4.50;;
48550;SDS011;34397;51.176;6.738;2022-07-29T08:26:15;8.13;;;4.10;;
48550;SDS011;34397;51.176;6.738;2022-07-29T08:28:47;9.55;;;4.30;;
48550;SDS011;34397;51.176;6.738;2022-07-29T08:33:52;7.53;;;3.90;;
48550;SDS011;34397;51.176;6.738;2022-07-29T08:36:26;9.02;;;3.67;;
48550;SDS011;34397;51.176;6.738;2022-07-29T08:38:59;6.50;;;3.72;;
48550;SDS011;34397;51.176;6.738;2022-07-29T08:41:32;7.95;;;3.45;;
48550;SDS011;34397;51.176;6.738;2022-07-29T08:44:03;7.25;;;3.72;;
48550;SDS011;34397;51.176;6.738;2022-07-29T08:46:36;7.72;;;3.47;;
48550;SDS011;34397;51.176;6.738;2022-07-29T08:49:09;6.28;;;3.67;;
48550;SDS011;34397;51.176;6.738;2022-07-29T08:51:41;6.90;;;3.83;;
48550;SDS011;34397;51.176;6.738;2022-07-29T08:54:17;6.47;;;4.05;;
48550;SDS011;34397;51.176;6.738;2022-07-29T08:56:50;8.20;;;4.07;;
48550;SDS011;34397;51.176;6.738;2022-07-29T08:59:22;8.52;;;3.95;;
48550;SDS011;34397;51.176;6.738;2022-07-29T09:01:58;8.75;;;4.22;;
48550;SDS011;34397;51.176;6.738;2022-07-29T09:04:31;9.15;;;3.75;;
48550;SDS011;34397;51.176;6.738;2022-07-29T09:07:07;9.32;;;3.80;;
48550;SDS011;34397;51.176;6.738;2022-07-29T09:09:41;5.88;;;3.40;;
48550;SDS011;34397;51.176;6.738;2022-07-29T09:12:13;7.20;;;3.90;;
48550;SDS011;34397;51.176;6.738;2022-07-29T09:14:46;6.45;;;3.10;;
48550;SDS011;34397;51.176;6.738;2022-07-29T09:17:20;6.87;;;3.50;;
48550;SDS011;34397;51.176;6.738;2022-07-29T09:20:12;5.85;;;3.22;;
48550;SDS011;34397;51.176;6.738;2022-07-29T09:22:45;7.55;;;3.65;;
48550;SDS011;34397;51.176;6.738;2022-07-29T09:25:33;7.47;;;3.50;;
48550;SDS011;34397;51.176;6.738;2022-07-29T09:28:06;9.02;;;3.33;;
48550;SDS011;34397;51.176;6.738;2022-07-29T09:30:41;9.18;;;3.40;;
48550;SDS011;34397;51.176;6.738;2022-07-29T09:33:22;9.88;;;3.50;;
48550;SDS011;34397;51.176;6.738;2022-07-29T09:36:04;7.00;;;3.30;;
48550;SDS011;34397;51.176;6.738;2022-07-29T09:38:38;10.23;;;3.88;;
48550;SDS011;34397;51.176;6.738;2022-07-29T09:41:11;8.50;;;3.47;;
48550;SDS011;34397;51.176;6.738;2022-07-29T09:43:52;6.38;;;3.25;;
48550;SDS011;34397;51.176;6.738;2022-07-29T09:46:26;6.38;;;3.15;;
48550;SDS011;34397;51.176;6.738;2022-07-29T09:49:07;6.63;;;3.35;;
48550;SDS011;34397;51.176;6.738;2022-07-29T09:51:40;5.93;;;3.38;;
48550;SDS011;34397;51.176;6.738;2022-07-29T09:54:20;7.50;;;3.40;;
48550;SDS011;34397;51.176;6.738;2022-07-29T09:56:55;6.55;;;3.35;;
48550;SDS011;34397;51.176;6.738;2022-07-29T09:59:27;5.63;;;3.20;;
48550;SDS011;34397;51.176;6.738;2022-07-29T10:01:59;8.13;;;3.90;;
48550;SDS011;34397;51.176;6.738;2022-07-29T10:04:38;9.20;;;4.22;;
48550;SDS011;34397;51.176;6.738;2022-07-29T10:07:11;8.43;;;3.70;;
48550;SDS011;34397;51.176;6.738;2022-07-29T10:09:49;7.90;;;3.50;;
48550;SDS011;34397;51.176;6.738;2022-07-29T10:12:25;7.10;;;3.40;;
48550;SDS011;34397;51.176;6.738;2022-07-29T10:14:57;6.45;;;3.28;;
48550;SDS011;34397;51.176;6.738;2022-07-29T10:17:30;6.40;;;3.35;;
48550;SDS011;34397;51.176;6.738;2022-07-29T10:20:02;6.55;;;3.40;;
48550;SDS011;34397;51.176;6.738;2022-07-29T10:22:36;7.63;;;3.13;;
48550;SDS011;34397;51.176;6.738;2022-07-29T10:25:08;8.55;;;3.60;;
48550;SDS011;34397;51.176;6.738;2022-07-29T10:27:43;7.93;;;3.30;;
48550;SDS011;34397;51.176;6.738;2022-07-29T10:30:16;5.30;;;3.10;;
48550;SDS011;34397;51.176;6.738;2022-07-29T10:36:15;4.15;;;2.47;;
48550;SDS011;34397;51.176;6.738;2022-07-29T10:39:04;6.97;;;2.50;;
48550;SDS011;34397;51.176;6.738;2022-07-29T10:41:50;5.28;;;2.70;;
48550;SDS011;34397;51.176;6.738;2022-07-29T10:44:35;4.80;;;2.45;;
48550;SDS011;34397;51.176;6.738;2022-07-29T10:47:19;7.75;;;2.70;;
48550;SDS011;34397;51.176;6.738;2022-07-29T10:49:56;4.95;;;2.53;;
48550;SDS011;34397;51.176;6.738;2022-07-29T10:55:33;6.97;;;2.58;;
48550;SDS011;34397;51.176;6.738;2022-07-29T10:58:14;6.57;;;2.30;;
48550;SDS011;34397;51.176;6.738;2022-07-29T11:00:49;5.55;;;2.38;;
48550;SDS011;34397;51.176;6.738;2022-07-29T11:06:19;5.15;;;2.50;;
48550;SDS011;34397;51.176;6.738;2022-07-29T11:11:48;5.15;;;2.13;;
48550;SDS011;34397;51.176;6.738;2022-07-29T11:14:30;4.88;;;2.20;;
48550;SDS011;34397;51.176;6.738;2022-07-29T11:17:36;7.80;;;2.88;;
48550;SDS011;34397;51.176;6.738;2022-07-29T11:20:39;7.20;;;3.10;;
48550;SDS011;34397;51.176;6.738;2022-07-29T11:23:22;7.47;;;3.10;;
48550;SDS011;34397;51.176;6.738;2022-07-29T11:26:19;7.35;;;2.80;;
48550;SDS011;34397;51.176;6.738;2022-07-29T11:28:54;7.95;;;2.85;;
48550;SDS011;34397;51.176;6.738;2022-07-29T11:31:35;12.75;;;3.55;;
48550;SDS011;34397;51.176;6.738;2022-07-29T11:34:17;5.63;;;2.65;;
48550;SDS011;34397;51.176;6.738;2022-07-29T11:42:49;9.07;;;2.88;;
48550;SDS011;34397;51.176;6.738;2022-07-29T11:45:22;6.00;;;3.17;;
48550;SDS011;34397;51.176;6.738;2022-07-29T11:48:02;7.25;;;2.38;;
48550;SDS011;34397;51.176;6.738;2022-07-29T11:50:37;6.70;;;3.03;;
48550;SDS011;34397;51.176;6.738;2022-07-29T11:53:10;7.88;;;3.60;;
48550;SDS011;34397;51.176;6.738;2022-07-29T11:55:43;8.07;;;3.72;;
48550;SDS011;34397;51.176;6.738;2022-07-29T11:58:15;12.25;;;4.35;;
48550;SDS011;34397;51.176;6.738;2022-07-29T12:00:53;7.70;;;4.00;;
48550;SDS011;34397;51.176;6.738;2022-07-29T12:03:26;7.60;;;4.20;;
48550;SDS011;34397;51.176;6.738;2022-07-29T12:06:02;6.78;;;4.03;;
48550;SDS011;34397;51.176;6.738;2022-07-29T12:08:42;9.10;;;3.90;;
48550;SDS011;34397;51.176;6.738;2022-07-29T12:11:15;8.20;;;4.55;;
48550;SDS011;34397;51.176;6.738;2022-07-29T12:13:48;6.65;;;3.72;;
48550;SDS011;34397;51.176;6.738;2022-07-29T12:16:21;7.18;;;3.60;;
48550;SDS011;34397;51.176;6.738;2022-07-29T12:18:57;12.32;;;4.15;;
48550;SDS011;34397;51.176;6.738;2022-07-29T12:21:43;13.30;;;4.43;;
48550;SDS011;34397;51.176;6.738;2022-07-29T12:24:17;8.48;;;4.10;;
48550;SDS011;34397;51.176;6.738;2022-07-29T12:26:50;9.35;;;4.57;;
48550;SDS011;34397;51.176;6.738;2022-07-29T12:29:23;8.60;;;4.47;;
48550;SDS011;34397;51.176;6.738;2022-07-29T12:31:59;8.63;;;3.90;;
48550;SDS011;34397;51.176;6.738;2022-07-29T12:34:31;7.35;;;3.97;;
48550;SDS011;34397;51.176;6.738;2022-07-29T12:37:06;8.43;;;4.15;;
48550;SDS011;34397;51.176;6.738;2022-07-29T12:39:41;6.95;;;3.70;;
48550;SDS011;34397;51.176;6.738;2022-07-29T12:42:14;7.50;;;3.50;;
48550;SDS011;34397;51.176;6.738;2022-07-29T12:44:48;9.23;;;3.53;;
48550;SDS011;34397;51.176;6.738;2022-07-29T12:47:21;11.23;;;4.18;;
48550;SDS011;34397;51.176;6.738;2022-07-29T12:50:07;6.80;;;3.42;;
48550;SDS011;34397;51.176;6.738;2022-07-29T12:52:42;8.98;;;3.97;;
48550;SDS011;34397;51.176;6.738;2022-07-29T12:55:15;8.25;;;3.92;;
48550;SDS011;34397;51.176;6.738;2022-07-29T12:57:47;8.32;;;4.60;;
48550;SDS011;34397;51.176;6.738;2022-07-29T13:00:22;12.18;;;4.45;;
48550;SDS011;34397;51.176;6.738;2022-07-29T13:02:55;9.48;;;4.05;;
48550;SDS011;34397;51.176;6.738;2022-07-29T13:05:39;8.30;;;3.95;;
48550;SDS011;34397;51.176;6.738;2022-07-29T13:08:15;8.60;;;4.30;;
48550;SDS011;34397;51.176;6.738;2022-07-29T13:10:49;7.70;;;4.03;;
48550;SDS011;34397;51.176;6.738;2022-07-29T13:13:21;6.43;;;4.13;;
48550;SDS011;34397;51.176;6.738;2022-07-29T13:16:04;9.15;;;3.83;;
48550;SDS011;34397;51.176;6.738;2022-07-29T13:18:38;7.93;;;3.50;;
48550;SDS011;34397;51.176;6.738;2022-07-29T13:21:11;23.88;;;5.35;;
48550;SDS011;34397;51.176;6.738;2022-07-29T13:23:46;9.10;;;3.33;;
48550;SDS011;34397;51.176;6.738;2022-07-29T13:26:18;7.07;;;3.28;;
48550;SDS011;34397;51.176;6.738;2022-07-29T13:28:50;7.20;;;3.03;;
48550;SDS011;34397;51.176;6.738;2022-07-29T13:31:22;5.68;;;3.20;;
48550;SDS011;34397;51.176;6.738;2022-07-29T13:33:54;5.47;;;2.90;;
48550;SDS011;34397;51.176;6.738;2022-07-29T13:36:26;5.40;;;3.00;;
48550;SDS011;34397;51.176;6.738;2022-07-29T13:38:59;28.52;;;5.03;;
48550;SDS011;34397;51.176;6.738;2022-07-29T13:41:32;20.60;;;4.18;;
48550;SDS011;34397;51.176;6.738;2022-07-29T13:44:04;14.30;;;3.40;;
48550;SDS011;34397;51.176;6.738;2022-07-29T13:46:36;10.23;;;2.97;;
48550;SDS011;34397;51.176;6.738;2022-07-29T13:49:08;6.07;;;3.10;;
48550;SDS011;34397;51.176;6.738;2022-07-29T13:51:41;6.13;;;3.25;;
48550;SDS011;34397;51.176;6.738;2022-07-29T13:54:14;8.70;;;3.15;;
48550;SDS011;34397;51.176;6.738;2022-07-29T13:56:46;6.65;;;2.78;;
48550;SDS011;34397;51.176;6.738;2022-07-29T13:59:18;6.78;;;3.10;;
48550;SDS011;34397;51.176;6.738;2022-07-29T14:01:50;4.68;;;2.35;;
48550;SDS011;34397;51.176;6.738;2022-07-29T14:04:22;4.70;;;2.67;;
48550;SDS011;34397;51.176;6.738;2022-07-29T14:06:54;8.20;;;3.20;;
48550;SDS011;34397;51.176;6.738;2022-07-29T14:09:27;7.78;;;2.95;;
48550;SDS011;34397;51.176;6.738;2022-07-29T14:11:59;6.38;;;3.10;;
48550;SDS011;34397;51.176;6.738;2022-07-29T14:14:32;7.45;;;2.58;;
48550;SDS011;34397;51.176;6.738;2022-07-29T14:17:05;5.18;;;2.60;;
48550;SDS011;34397;51.176;6.738;2022-07-29T14:19:37;6.63;;;3.45;;
48550;SDS011;34397;51.176;6.738;2022-07-29T14:22:09;5.28;;;2.85;;
48550;SDS011;34397;51.176;6.738;2022-07-29T14:24:42;6.38;;;3.00;;
48550;SDS011;34397;51.176;6.738;2022-07-29T14:27:14;6.07;;;2.58;;
48550;SDS011;34397;51.176;6.738;2022-07-29T14:29:46;4.90;;;2.72;;
48550;SDS011;34397;51.176;6.738;2022-07-29T14:32:18;5.35;;;2.85;;
48550;SDS011;34397;51.176;6.738;2022-07-29T14:34:49;6.40;;;2.80;;
48550;SDS011;34397;51.176;6.738;2022-07-29T14:37:21;4.32;;;2.50;;
48550;SDS011;34397;51.176;6.738;2022-07-29T14:39:55;4.80;;;2.45;;
48550;SDS011;34397;51.176;6.738;2022-07-29T14:42:29;5.97;;;2.67;;
48550;SDS011;34397;51.176;6.738;2022-07-29T14:45:02;4.43;;;2.35;;
48550;SDS011;34397;51.176;6.738;2022-07-29T14:47:35;3.25;;;1.80;;
48550;SDS011;34397;51.176;6.738;2022-07-29T14:50:08;4.53;;;2.03;;
48550;SDS011;34397;51.176;6.738;2022-07-29T14:52:40;3.72;;;2.10;;
48550;SDS011;34397;51.176;6.738;2022-07-29T14:55:14;5.70;;;2.40;;
48550;SDS011;34397;51.176;6.738;2022-07-29T14:57:46;8.88;;;2.35;;
48550;SDS011;34397;51.176;6.738;2022-07-29T15:00:18;7.40;;;2.50;;
48550;SDS011;34397;51.176;6.738;2022-07-29T15:02:50;4.55;;;2.00;;
48550;SDS011;34397;51.176;6.738;2022-07-29T15:05:22;7.38;;;2.53;;
48550;SDS011;34397;51.176;6.738;2022-07-29T15:07:54;7.18;;;2.63;;
48550;SDS011;34397;51.176;6.738;2022-07-29T15:10:28;4.88;;;2.28;;
48550;SDS011;34397;51.176;6.738;2022-07-29T15:13:00;4.93;;;2.20;;
48550;SDS011;34397;51.176;6.738;2022-07-29T15:15:31;4.43;;;2.13;;
48550;SDS011;34397;51.176;6.738;2022-07-29T15:18:03;5.35;;;2.20;;
48550;SDS011;34397;51.176;6.738;2022-07-29T15:20:36;4.70;;;2.22;;
48550;SDS011;34397;51.176;6.738;2022-07-29T15:23:08;5.53;;;2.10;;
48550;SDS011;34397;51.176;6.738;2022-07-29T15:25:44;6.10;;;1.95;;
48550;SDS011;34397;51.176;6.738;2022-07-29T15:28:16;5.22;;;1.88;;
48550;SDS011;34397;51.176;6.738;2022-07-29T15:30:48;4.18;;;2.05;;
48550;SDS011;34397;51.176;6.738;2022-07-29T15:33:20;4.90;;;2.33;;
48550;SDS011;34397;51.176;6.738;2022-07-29T15:35:51;7.32;;;2.40;;
48550;SDS011;34397;51.176;6.738;2022-07-29T15:38:23;4.60;;;2.05;;
48550;SDS011;34397;51.176;6.738;2022-07-29T15:40:56;4.28;;;2.30;;
48550;SDS011;34397;51.176;6.738;2022-07-29T15:43:28;5.25;;;2.22;;
48550;SDS011;34397;51.176;6.738;2022-07-29T15:46:00;5.32;;;2.10;;
48550;SDS011;34397;51.176;6.738;2022-07-29T15:48:49;4.72;;;2.13;;
48550;SDS011;34397;51.176;6.738;2022-07-29T15:51:21;5.00;;;2.27;;
48550;SDS011;34397;51.176;6.738;2022-07-29T15:53:54;3.90;;;1.90;;
48550;SDS011;34397;51.176;6.738;2022-07-29T15:56:27;3.88;;;1.90;;